Time;durP1;ratioP1;P1;durP2;ratioP2;P2;SDS_P1;SDS_P2;PMS_P1;PMS_P2;Temp;Humidity;BMP_temperature;BMP_pressure;BME280_temperature;BME280_humidity;BME280_pressure;Samples;Min_cycle;Max_cycle;Signal;HPM_P1;HPM_P2
2023/10/06 00:01:44;;;;;;;15.73;4.03;;;17.00;37.70;;;;;;6097318;23;20339;-69
2023/10/06 00:04:15;;;;;;;8.35;3.00;;;18.10;43.70;;;;;;6097755;23;20022;-69
2023/10/06 00:06:42;;;;;;;9.32;3.92;;;17.80;44.50;;;;;;6096459;23;20089;-69
2023/10/06 00:09:48;;;;;;;9.18;3.75;;;17.00;44.30;;;;;;6096116;23;20012;-69
2023/10/06 00:12:07;;;;;;;11.70;4.13;;;17.80;48.20;;;;;;6118544;23;20025;-69
2023/10/06 00:14:48;;;;;;;10.95;3.28;;;18.00;49.90;;;;;;6123594;23;20017;-69
2023/10/06 00:17:16;;;;;;;7.63;2.88;;;18.00;40.40;;;;;;6124026;23;20014;-69
2023/10/06 00:19:43;;;;;;;10.00;3.58;;;17.60;59.50;;;;;;6073195;23;20014;-69
2023/10/06 00:24:37;;;;;;;12.43;3.42;;;16.80;65.70;;;;;;6124121;23;20014;-69
2023/10/06 00:27:03;;;;;;;11.73;3.65;;;16.80;73.50;;;;;;6097091;23;20018;-69
2023/10/06 00:29:29;;;;;;;10.88;3.45;;;17.00;75.90;;;;;;6097444;23;20010;-69
2023/10/06 00:32:03;;;;;;;9.30;3.60;;;17.40;71.80;;;;;;6097959;23;20032;-69
2023/10/06 00:34:34;;;;;;;11.60;3.70;;;16.80;81.10;;;;;;6098202;23;20021;-69
2023/10/06 00:37:02;;;;;;;9.13;3.25;;;16.90;67.20;;;;;;6124335;23;20413;-69
2023/10/06 00:39:30;;;;;;;9.43;3.35;;;16.90;86.40;;;;;;6097075;23;20452;-69
2023/10/06 00:42:00;;;;;;;12.10;3.70;;;17.20;84.40;;;;;;6121369;23;20045;-69
2023/10/06 00:44:29;;;;;;;11.02;3.28;;;16.80;91.20;;;;;;6073078;23;20014;-69
2023/10/06 00:46:58;;;;;;;8.25;3.65;;;17.30;92.20;;;;;;6097385;23;20355;-69
2023/10/06 00:49:30;;;;;;;11.90;3.63;;;18.00;95.00;;;;;;6123468;23;20448;-69
2023/10/06 00:51:56;;;;;;;7.90;3.35;;;17.30;90.60;;;;;;6123218;23;20348;-69
2023/10/06 00:54:25;;;;;;;9.50;3.53;;;17.70;92.10;;;;;;6122797;23;20014;-69
2023/10/06 00:56:57;;;;;;;10.60;3.53;;;17.00;95.00;;;;;;6097435;23;20025;-69
2023/10/06 00:59:26;;;;;;;9.40;3.72;;;17.10;99.90;;;;;;6122618;23;20018;-69
2023/10/06 01:01:52;;;;;;;14.23;4.25;;;16.90;89.30;;;;;;6096139;23;20018;-69
2023/10/06 01:04:24;;;;;;;9.23;3.95;;;18.40;99.30;;;;;;6122987;23;20016;-69
2023/10/06 01:06:54;;;;;;;12.57;4.05;;;17.10;98.20;;;;;;6122216;23;20010;-69
2023/10/06 01:09:30;;;;;;;9.70;3.60;;;16.70;99.90;;;;;;6094495;23;20018;-69
2023/10/06 01:11:57;;;;;;;9.98;3.90;;;17.60;98.80;;;;;;6096663;23;20025;-69
2023/10/06 01:14:27;;;;;;;8.57;3.47;;;17.20;99.90;;;;;;6094028;23;20097;-69
2023/10/06 01:17:08;;;;;;;11.65;4.03;;;17.40;99.90;;;;;;6097521;23;20018;-69
2023/10/06 01:19:37;;;;;;;11.30;3.78;;;17.90;99.90;;;;;;6096350;23;20054;-69
2023/10/06 01:22:22;;;;;;;9.55;3.55;;;17.30;99.90;;;;;;6122980;23;20014;-69
2023/10/06 01:24:48;;;;;;;10.95;3.70;;;17.10;99.90;;;;;;6097731;23;20355;-69
2023/10/06 01:27:14;;;;;;;10.45;3.60;;;17.20;99.90;;;;;;6122788;23;20016;-69
2023/10/06 01:29:42;;;;;;;11.82;3.50;;;17.40;99.90;;;;;;6121607;23;20014;-69
2023/10/06 01:32:08;;;;;;;12.52;4.18;;;17.90;99.90;;;;;;6098711;23;20018;-69
2023/10/06 01:34:38;;;;;;;9.82;4.03;;;18.00;99.90;;;;;;6097450;23;20029;-69
2023/10/06 01:37:11;;;;;;;10.13;3.63;;;17.80;99.90;;;;;;6121212;23;20017;-69
2023/10/06 01:39:37;;;;;;;13.15;3.60;;;17.10;99.90;;;;;;6121148;23;20096;-70
2023/10/06 01:42:17;;;;;;;8.82;4.07;;;17.40;99.90;;;;;;6121249;23;20022;-69
2023/10/06 01:44:43;;;;;;;8.75;3.85;;;18.00;96.10;;;;;;6096770;23;20044;-69
2023/10/06 01:47:09;;;;;;;12.02;4.10;;;17.20;97.20;;;;;;6095983;23;20117;-69
2023/10/06 01:49:35;;;;;;;8.82;4.07;;;17.70;96.10;;;;;;6121418;23;20014;-69
2023/10/06 01:52:05;;;;;;;10.63;3.45;;;17.50;93.30;;;;;;6096651;23;20443;-69
2023/10/06 01:54:34;;;;;;;14.27;4.28;;;17.30;74.70;;;;;;6096975;23;20010;-69
2023/10/06 01:57:06;;;;;;;9.45;4.00;;;16.90;92.90;;;;;;6120825;23;20090;-70
2023/10/06 01:59:33;;;;;;;10.05;3.10;;;17.00;88.00;;;;;;6120944;23;20021;-69
2023/10/06 02:02:02;;;;;;;10.43;3.90;;;17.40;87.70;;;;;;6119346;23;20097;-70
2023/10/06 02:04:40;;;;;;;9.63;3.22;;;17.00;76.50;;;;;;6122280;23;20348;-70
2023/10/06 02:07:10;;;;;;;9.65;3.42;;;17.20;75.70;;;;;;6121129;23;20013;-69
2023/10/06 02:09:37;;;;;;;10.23;3.40;;;17.40;71.60;;;;;;6120290;23;20131;-69
2023/10/06 02:12:05;;;;;;;11.63;3.70;;;17.30;62.30;;;;;;6121428;23;20024;-69
2023/10/06 02:14:31;;;;;;;10.45;3.47;;;16.90;57.60;;;;;;6119202;23;20455;-69
2023/10/06 02:16:56;;;;;;;10.15;3.58;;;17.20;53.30;;;;;;6118973;23;20025;-69
2023/10/06 02:19:22;;;;;;;10.45;3.10;;;17.80;51.50;;;;;;6118412;23;20017;-69
2023/10/06 02:21:51;;;;;;;6.82;2.90;;;17.70;49.70;;;;;;6119282;23;20456;-69
2023/10/06 02:24:17;;;;;;;9.57;2.88;;;16.90;30.50;;;;;;6116368;23;20273;-69
2023/10/06 02:27:03;;;;;;;11.30;3.17;;;17.30;34.50;;;;;;6118159;23;20045;-69
2023/10/06 02:29:30;;;;;;;10.73;3.13;;;18.00;23.40;;;;;;6116969;23;20013;-69
2023/10/06 02:32:06;;;;;;;8.48;3.05;;;17.40;32.90;;;;;;6117970;23;20020;-69
2023/10/06 02:34:35;;;;;;;11.15;3.08;;;17.70;25.60;;;;;;6119459;23;20014;-69
2023/10/06 02:37:06;;;;;;;7.68;3.08;;;16.80;26.60;;;;;;6072527;23;20014;-69
2023/10/06 02:39:34;;;;;;;9.10;3.72;;;16.80;27.00;;;;;;6096247;23;20384;-69
2023/10/06 02:42:13;;;;;;;10.05;2.72;;;17.10;17.70;;;;;;6071991;23;20341;-70
2023/10/06 02:44:40;;;;;;;14.25;3.53;;;16.90;5.40;;;;;;6121755;23;20017;-70
2023/10/06 02:47:09;;;;;;;10.18;3.08;;;17.40;23.30;;;;;;6121573;23;20049;-69
2023/10/06 02:49:37;;;;;;;11.65;3.40;;;18.20;21.70;;;;;;6121343;23;20097;-69
2023/10/06 02:55:05;;;;;;;11.00;3.58;;;17.10;9.20;;;;;;6096346;23;20104;-70
2023/10/06 02:57:35;;;;;;;10.77;3.38;;;17.80;11.00;;;;;;6122184;23;20340;-70
2023/10/06 03:02:56;;;;;;;11.70;3.45;;;17.30;4.70;;;;;;6096677;23;20415;-71
2023/10/06 03:05:31;;;;;;;9.13;3.05;;;16.80;24.80;;;;;;6095857;23;20363;-70
2023/10/06 03:07:58;;;;;;;10.93;2.80;;;17.00;23.10;;;;;;6095898;23;20014;-70
2023/10/06 03:10:27;;;;;;;10.75;2.88;;;17.20;10.50;;;;;;6071663;23;20025;-71
2023/10/06 03:12:53;;;;;;;14.88;4.13;;;17.10;22.90;;;;;;6071242;23;20013;-70
2023/10/06 03:15:29;;;;;;;9.73;3.03;;;17.00;20.90;;;;;;6072564;23;20018;-71
2023/10/06 03:17:55;;;;;;;10.32;3.33;;;16.70;11.90;;;;;;6095929;23;20018;-70
2023/10/06 03:20:26;;;;;;;9.38;3.20;;;17.40;22.60;;;;;;6095772;23;20101;-70
2023/10/06 03:22:52;;;;;;;12.85;3.60;;;17.20;29.30;;;;;;6120453;23;20414;-70
2023/10/06 03:25:18;;;;;;;10.90;3.20;;;17.00;28.80;;;;;;6096042;23;20017;-71
2023/10/06 03:27:54;;;;;;;9.10;3.10;;;17.30;35.10;;;;;;6119935;23;20025;-70
2023/10/06 03:30:34;;;;;;;15.27;3.30;;;17.20;45.70;;;;;;6120945;23;20078;-70
2023/10/06 03:33:03;;;;;;;10.63;3.63;;;16.90;54.90;;;;;;6119002;23;20014;-69
2023/10/06 03:35:39;;;;;;;9.18;3.47;;;16.80;61.30;;;;;;6095948;23;20032;-69
2023/10/06 03:38:27;;;;;;;10.18;3.63;;;16.90;52.40;;;;;;6095569;23;20045;-69
2023/10/06 03:43:49;;;;;;;15.38;3.92;;;17.20;90.70;;;;;;6094415;23;20077;-69
2023/10/06 03:46:18;;;;;;;13.27;3.63;;;16.70;91.70;;;;;;6092449;23;20014;-69
2023/10/06 03:48:48;;;;;;;10.07;4.07;;;16.50;98.40;;;;;;6118201;23;20491;-69
2023/10/06 03:51:16;;;;;;;10.05;4.30;;;17.30;99.90;;;;;;6095361;23;20012;-70
2023/10/06 03:53:42;;;;;;;10.98;4.43;;;17.80;99.90;;;;;;6072120;23;20025;-70
2023/10/06 03:56:08;;;;;;;9.63;4.20;;;17.10;99.90;;;;;;6096428;23;20383;-69
2023/10/06 03:58:34;;;;;;;10.73;4.50;;;16.80;99.90;;;;;;6096349;23;20112;-69
2023/10/06 04:01:07;;;;;;;12.05;4.35;;;17.40;99.90;;;;;;6098068;23;20049;-69
2023/10/06 04:03:33;;;;;;;11.90;4.68;;;17.10;99.90;;;;;;6122922;23;20491;-69
2023/10/06 04:06:03;;;;;;;10.63;4.88;;;17.40;99.90;;;;;;6098408;23;20014;-69
2023/10/06 04:08:29;;;;;;;15.60;5.05;;;16.80;99.90;;;;;;6096952;23;20085;-70
2023/10/06 04:10:58;;;;;;;17.25;5.40;;;17.70;99.90;;;;;;6097586;23;20451;-70
2023/10/06 04:13:26;;;;;;;10.57;4.80;;;16.90;99.90;;;;;;6123015;23;20609;-70
2023/10/06 04:15:53;;;;;;;15.85;5.57;;;16.90;99.90;;;;;;6097410;23;20096;-70
2023/10/06 04:18:23;;;;;;;10.70;4.10;;;17.10;99.90;;;;;;6097418;23;20018;-70
2023/10/06 04:20:51;;;;;;;11.70;5.10;;;17.10;99.90;;;;;;6123414;23;20037;-71
2023/10/06 04:23:18;;;;;;;13.70;5.45;;;;;;;;;;6122638;23;20468;-70
2023/10/06 04:25:46;;;;;;;11.23;4.60;;;17.00;99.90;;;;;;6097384;23;20049;-70
2023/10/06 04:28:14;;;;;;;13.18;5.75;;;17.40;99.90;;;;;;6096235;23;20014;-71
2023/10/06 04:30:44;;;;;;;13.20;5.00;;;17.70;99.90;;;;;;6094977;23;20029;-70
2023/10/06 04:33:11;;;;;;;13.90;5.15;;;17.10;99.90;;;;;;6095599;23;20360;-71
2023/10/06 04:35:47;;;;;;;13.90;5.55;;;17.00;99.90;;;;;;6096360;23;20412;-70
2023/10/06 04:38:14;;;;;;;16.13;5.07;;;17.10;99.90;;;;;;6121989;23;20017;-70
2023/10/06 04:40:42;;;;;;;13.05;5.20;;;17.20;99.90;;;;;;6095448;23;20032;-70
2023/10/06 04:43:09;;;;;;;12.07;4.85;;;17.10;99.90;;;;;;6073573;23;20021;-70
2023/10/06 04:45:38;;;;;;;11.85;4.55;;;17.40;99.90;;;;;;6122981;23;20010;-70
2023/10/06 04:48:07;;;;;;;13.02;4.25;;;17.00;99.90;;;;;;6097478;23;20576;-70
2023/10/06 04:50:34;;;;;;;10.52;4.03;;;17.40;99.90;;;;;;6096264;23;20014;-70
2023/10/06 04:53:00;;;;;;;12.38;4.78;;;17.40;99.90;;;;;;6097247;23;20377;-70
2023/10/06 04:55:26;;;;;;;11.07;5.60;;;17.10;99.90;;;;;;6123388;23;20010;-70
2023/10/06 04:57:52;;;;;;;18.23;5.03;;;16.80;99.90;;;;;;6123007;23;20336;-70
2023/10/06 05:00:21;;;;;;;11.18;4.53;;;17.40;99.90;;;;;;6096101;23;20014;-70
2023/10/06 05:02:47;;;;;;;11.60;5.15;;;16.80;99.90;;;;;;6096686;23;20089;-70
2023/10/06 05:05:22;;;;;;;12.00;4.35;;;16.60;99.90;;;;;;6097449;23;20010;-70
2023/10/06 05:07:51;;;;;;;13.88;4.50;;;16.50;99.90;;;;;;6096282;23;20077;-70
2023/10/06 05:10:21;;;;;;;11.95;4.38;;;17.00;99.90;;;;;;6096782;23;20014;-71
2023/10/06 05:12:51;;;;;;;10.43;4.10;;;17.10;99.90;;;;;;6098082;23;20049;-71
2023/10/06 05:15:41;;;;;;;11.32;4.72;;;17.50;99.90;;;;;;6097622;23;20329;-70
2023/10/06 05:18:04;;;;;;;15.77;4.70;;;17.20;99.90;;;;;;6119886;23;20653;-69
2023/10/06 05:20:35;;;;;;;12.35;4.22;;;16.90;99.90;;;;;;6096164;23;20022;-69
2023/10/06 05:23:09;;;;;;;11.07;4.80;;;16.60;99.90;;;;;;6123878;23;20024;-70
2023/10/06 05:25:38;;;;;;;;;;;17.60;99.90;;;;;;6123357;23;20018;-70
2023/10/06 05:28:05;;;;;;;13.70;4.20;;;17.30;99.90;;;;;;6094611;23;19924;-69
2023/10/06 05:30:31;;;;;;;11.98;4.35;;;17.10;99.90;;;;;;6122354;23;20037;-69
2023/10/06 05:32:58;;;;;;;13.50;4.28;;;;;;;;;;6107478;23;20060;-69
2023/10/06 05:35:26;;;;;;;10.45;4.53;;;17.70;99.90;;;;;;6120238;23;20022;-69
2023/10/06 05:37:53;;;;;;;12.98;4.10;;;17.50;99.90;;;;;;6120827;23;20024;-69
2023/10/06 05:40:20;;;;;;;13.50;4.35;;;17.00;99.90;;;;;;6120291;23;20416;-70
2023/10/06 05:42:49;;;;;;;11.63;4.45;;;17.40;99.90;;;;;;6119135;23;20018;-70
2023/10/06 05:45:19;;;;;;;16.63;5.68;;;17.10;99.90;;;;;;6117810;23;20014;-70
2023/10/06 05:47:45;;;;;;;12.15;4.07;;;16.80;99.90;;;;;;6120216;23;20220;-70
2023/10/06 05:50:18;;;;;;;12.48;4.03;;;16.80;99.90;;;;;;6123307;23;20076;-70
2023/10/06 05:52:44;;;;;;;10.05;4.32;;;17.00;99.90;;;;;;6121663;23;20100;-70
2023/10/06 05:55:12;;;;;;;13.68;4.30;;;17.80;99.90;;;;;;6120696;23;20020;-70
2023/10/06 05:57:43;;;;;;;12.80;4.65;;;17.30;99.90;;;;;;6118316;23;20014;-70
2023/10/06 06:00:18;;;;;;;11.50;4.57;;;17.40;99.90;;;;;;6117055;23;20014;-70
2023/10/06 06:02:47;;;;;;;;;;;17.20;99.90;;;;;;6119159;23;20026;-70
2023/10/06 06:05:15;;;;;;;14.75;4.32;;;16.90;99.90;;;;;;6121048;23;19944;-70
2023/10/06 06:07:42;;;;;;;10.00;4.65;;;16.90;99.90;;;;;;6121859;23;20494;-70
2023/10/06 06:10:13;;;;;;;11.45;4.65;;;17.20;99.90;;;;;;6121833;23;20014;-70
2023/10/06 06:12:40;;;;;;;10.57;4.38;;;16.90;99.90;;;;;;6120685;23;20046;-70
2023/10/06 06:15:08;;;;;;;13.48;5.18;;;17.80;99.90;;;;;;6120903;23;20025;-70
2023/10/06 06:17:34;;;;;;;8.98;4.60;;;16.80;99.90;;;;;;6120747;23;20021;-70
2023/10/06 06:20:01;;;;;;;12.48;5.47;;;17.00;99.90;;;;;;6122110;23;20538;-72
2023/10/06 06:22:29;;;;;;;14.20;4.68;;;17.60;99.90;;;;;;6120740;23;20018;-70
2023/10/06 06:24:55;;;;;;;12.25;4.22;;;17.60;99.90;;;;;;6096664;23;20084;-70
2023/10/06 06:27:22;;;;;;;13.00;4.35;;;16.90;99.90;;;;;;6122916;23;20342;-71
2023/10/06 06:29:49;;;;;;;13.68;4.72;;;16.70;99.90;;;;;;6121609;23;20009;-71
2023/10/06 06:32:16;;;;;;;12.02;5.15;;;17.20;99.90;;;;;;6121317;23;20021;-71
2023/10/06 06:34:42;;;;;;;10.18;4.20;;;17.00;99.90;;;;;;6122937;23;20481;-70
2023/10/06 06:37:12;;;;;;;11.43;4.07;;;17.10;99.90;;;;;;6124591;23;20049;-71
2023/10/06 06:39:44;;;;;;;15.02;4.25;;;17.20;99.90;;;;;;6118862;23;20076;-71
2023/10/06 06:42:13;;;;;;;13.00;4.32;;;16.90;99.90;;;;;;6120453;23;20554;-71
2023/10/06 06:44:39;;;;;;;13.38;4.63;;;17.00;99.90;;;;;;6119885;23;20020;-71
2023/10/06 06:47:05;;;;;;;17.25;4.38;;;16.70;1.00;;;;;;6120671;23;20416;-71
2023/10/06 06:49:31;;;;;;;12.38;4.22;;;16.90;1.00;;;;;;6095809;23;20006;-71
2023/10/06 06:51:59;;;;;;;13.18;4.47;;;16.90;1.00;;;;;;6119773;23;20036;-71
2023/10/06 06:54:25;;;;;;;10.57;4.40;;;16.90;1.00;;;;;;6120004;23;20363;-71
2023/10/06 06:56:51;;;;;;;14.60;4.47;;;17.10;1.00;;;;;;6121861;23;20010;-71
2023/10/06 06:59:20;;;;;;;12.35;4.63;;;;;;;;;;6119182;23;20093;-70
2023/10/06 07:01:47;;;;;;;12.38;4.60;;;16.90;1.00;;;;;;6094774;23;20025;-70
2023/10/06 07:04:13;;;;;;;14.50;4.78;;;16.40;1.00;;;;;;6121460;23;20018;-71
2023/10/06 07:06:40;;;;;;;12.82;4.57;;;16.70;1.00;;;;;;6095095;23;20085;-70
2023/10/06 07:09:12;;;;;;;13.10;4.30;;;16.90;1.00;;;;;;6121699;23;20055;-69
2023/10/06 07:11:40;;;;;;;10.13;3.65;;;17.10;1.00;;;;;;6120639;23;20010;-69
2023/10/06 07:14:08;;;;;;;15.10;5.63;;;16.90;1.00;;;;;;6096689;23;20089;-69
2023/10/06 07:16:35;;;;;;;10.82;4.18;;;17.30;1.00;;;;;;6121606;23;20518;-69
2023/10/06 07:19:01;;;;;;;15.27;5.32;;;16.40;1.00;;;;;;6122298;23;20065;-69
2023/10/06 07:21:28;;;;;;;14.07;3.58;;;17.30;1.00;;;;;;6122468;23;20398;-69
2023/10/06 07:23:56;;;;;;;10.80;4.03;;;17.20;1.00;;;;;;6121133;23;20017;-69
2023/10/06 07:26:22;;;;;;;13.50;5.10;;;16.30;1.00;;;;;;6097064;23;20093;-69
2023/10/06 07:28:52;;;;;;;11.57;4.78;;;17.10;1.00;;;;;;6121463;23;20014;-69
2023/10/06 07:31:17;;;;;;;16.08;4.43;;;17.10;1.00;;;;;;6119988;23;20010;-69
2023/10/06 07:33:52;;;;;;;11.25;4.35;;;17.10;1.00;;;;;;6097472;23;20029;-69
2023/10/06 07:36:18;;;;;;;12.48;4.72;;;16.90;1.00;;;;;;6097634;23;20018;-70
2023/10/06 07:38:44;;;;;;;10.75;4.75;;;17.00;1.00;;;;;;6096238;23;20025;-69
2023/10/06 07:41:23;;;;;;;11.95;3.97;;;17.00;1.00;;;;;;6123165;23;20080;-69
2023/10/06 07:43:49;;;;;;;12.85;4.38;;;17.30;1.00;;;;;;6121123;23;20016;-69
2023/10/06 07:46:16;;;;;;;12.23;4.13;;;16.90;1.00;;;;;;6122423;23;20337;-71
2023/10/06 07:48:44;;;;;;;17.10;4.35;;;16.90;1.00;;;;;;6121435;23;20017;-70
2023/10/06 07:51:13;;;;;;;14.25;5.05;;;16.90;1.00;;;;;;6122739;23;20021;-69
2023/10/06 07:53:39;;;;;;;15.77;5.05;;;17.90;1.00;;;;;;6121985;23;20514;-71
2023/10/06 07:56:08;;;;;;;14.65;4.88;;;17.00;1.00;;;;;;6122461;23;20077;-69
2023/10/06 07:58:41;;;;;;;11.80;4.03;;;16.80;1.00;;;;;;6121383;23;20014;-69
2023/10/06 08:01:12;;;;;;;17.38;5.18;;;17.30;1.00;;;;;;6122144;23;20013;-70
2023/10/06 08:03:39;;;;;;;11.05;4.07;;;17.10;1.00;;;;;;6121470;23;20053;-69
2023/10/06 08:06:11;;;;;;;16.92;5.65;;;17.20;1.00;;;;;;6097937;23;20018;-69
2023/10/06 08:08:40;;;;;;;12.27;4.03;;;16.90;1.00;;;;;;6122690;23;20028;-71
2023/10/06 08:11:06;;;;;;;11.63;4.40;;;16.90;1.00;;;;;;6121662;23;20014;-69
2023/10/06 08:13:35;;;;;;;12.55;4.95;;;16.90;1.00;;;;;;6122610;23;20093;-69
2023/10/06 08:16:02;;;;;;;16.70;4.38;;;17.10;1.00;;;;;;6121879;23;20045;-69
2023/10/06 08:18:31;;;;;;;13.45;4.88;;;16.80;1.00;;;;;;6121783;23;20013;-69
2023/10/06 08:21:00;;;;;;;13.95;6.15;;;17.00;1.00;;;;;;6121607;23;20014;-69
2023/10/06 08:23:27;;;;;;;15.40;4.63;;;16.90;1.00;;;;;;6122225;23;20468;-69
2023/10/06 08:25:56;;;;;;;14.35;4.70;;;17.50;1.00;;;;;;6097465;23;20531;-69
2023/10/06 08:28:24;;;;;;;11.65;3.97;;;17.10;1.00;;;;;;6122280;23;20025;-69
2023/10/06 08:30:50;;;;;;;15.95;5.07;;;17.80;1.00;;;;;;6121759;23;20010;-69
2023/10/06 08:33:16;;;;;;;12.18;4.40;;;17.60;1.00;;;;;;6122324;23;20097;-69
2023/10/06 08:35:44;;;;;;;11.13;4.50;;;16.80;1.00;;;;;;6123755;23;20459;-69
2023/10/06 08:38:10;;;;;;;11.75;4.40;;;17.30;1.00;;;;;;6123937;23;20025;-69
2023/10/06 08:40:41;;;;;;;12.77;4.25;;;17.70;1.00;;;;;;6125399;23;20005;-70
2023/10/06 08:43:08;;;;;;;13.60;4.65;;;17.10;1.00;;;;;;6123227;23;20328;-70
2023/10/06 08:45:42;;;;;;;14.43;4.70;;;17.70;1.00;;;;;;6123488;23;20462;-70
2023/10/06 08:48:13;;;;;;;12.98;4.68;;;16.80;1.00;;;;;;6124784;23;20088;-70
2023/10/06 08:50:43;;;;;;;10.20;3.63;;;17.60;1.00;;;;;;6098112;23;20348;-69
2023/10/06 08:53:14;;;;;;;11.18;4.13;;;17.40;1.00;;;;;;6098702;23;20018;-70
2023/10/06 08:55:44;;;;;;;15.05;3.78;;;16.90;1.00;;;;;;6122299;23;20403;-70
2023/10/06 08:58:13;;;;;;;9.65;3.72;;;17.10;1.00;;;;;;6123085;23;20036;-70
2023/10/06 09:00:43;;;;;;;11.50;4.07;;;;;;;;;;6098464;23;20025;-70
2023/10/06 09:03:14;;;;;;;10.98;3.55;;;17.90;1.00;;;;;;6123518;23;20435;-70
2023/10/06 09:05:44;;;;;;;14.77;3.45;;;16.90;1.00;;;;;;6122066;23;20056;-70
2023/10/06 09:08:17;;;;;;;15.70;4.03;;;16.90;1.00;;;;;;6122045;23;20013;-70
2023/10/06 09:10:50;;;;;;;10.02;3.85;;;17.00;1.00;;;;;;6121388;23;20014;-70
2023/10/06 09:13:18;;;;;;;13.00;4.15;;;17.60;1.00;;;;;;6097673;23;20367;-70
2023/10/06 09:15:59;;;;;;;12.63;3.47;;;17.40;1.00;;;;;;6122218;23;20022;-70
2023/10/06 09:18:29;;;;;;;9.05;3.65;;;16.90;1.00;;;;;;6122223;23;20096;-70
2023/10/06 09:21:10;;;;;;;12.65;4.05;;;18.00;1.00;;;;;;6097520;23;20021;-70
2023/10/06 09:23:37;;;;;;;14.68;3.88;;;17.40;1.00;;;;;;6123629;23;20021;-69
2023/10/06 09:26:06;;;;;;;9.13;3.47;;;17.50;1.00;;;;;;6123762;23;20022;-69
2023/10/06 09:28:33;;;;;;;8.98;3.15;;;17.80;1.00;;;;;;6121800;23;20080;-70
2023/10/06 09:31:05;;;;;;;9.02;3.03;;;17.30;1.00;;;;;;6122412;23;20124;-70
2023/10/06 09:33:37;;;;;;;9.48;3.10;;;17.50;1.00;;;;;;6123887;23;20014;-69
2023/10/06 09:36:06;;;;;;;10.93;4.35;;;17.30;1.00;;;;;;6075039;23;20018;-70
2023/10/06 09:38:32;;;;;;;10.95;3.35;;;17.30;1.00;;;;;;6073542;23;20017;-70
2023/10/06 09:40:58;;;;;;;12.45;4.28;;;17.20;1.00;;;;;;6124009;23;20158;-70
2023/10/06 09:43:25;;;;;;;10.90;3.60;;;18.00;1.00;;;;;;6097511;23;20471;-70
2023/10/06 09:45:56;;;;;;;13.50;3.95;;;17.10;1.00;;;;;;6123914;23;20033;-69
2023/10/06 09:48:26;;;;;;;14.40;3.88;;;17.80;1.00;;;;;;6123555;23;20018;-70
2023/10/06 09:50:57;;;;;;;10.07;3.45;;;17.80;1.00;;;;;;6097153;23;20341;-70
2023/10/06 09:53:24;;;;;;;11.45;3.83;;;;;;;;;;6097583;23;20017;-70
2023/10/06 09:55:50;;;;;;;16.98;4.15;;;17.60;1.00;;;;;;6123238;23;20482;-70
2023/10/06 09:58:17;;;;;;;9.40;3.58;;;17.30;1.00;;;;;;6097763;23;20029;-70
2023/10/06 10:00:44;;;;;;;14.27;4.07;;;17.30;1.00;;;;;;6096971;23;20072;-70
2023/10/06 10:03:13;;;;;;;10.18;3.42;;;17.60;1.00;;;;;;6123277;23;20487;-70
2023/10/06 10:05:40;;;;;;;14.63;3.80;;;17.30;1.00;;;;;;6097277;23;20110;-70
2023/10/06 10:08:06;;;;;;;14.23;3.45;;;17.00;1.00;;;;;;6123592;23;20014;-70
2023/10/06 10:10:35;;;;;;;13.55;3.83;;;17.50;1.00;;;;;;6123329;23;20340;-70
2023/10/06 10:13:07;;;;;;;13.55;4.03;;;18.30;1.00;;;;;;6097232;23;20355;-70
2023/10/06 10:15:53;;;;;;;14.05;3.50;;;17.40;1.00;;;;;;6097325;23;20491;-70
2023/10/06 10:18:29;;;;;;;13.85;3.25;;;17.20;1.00;;;;;;6097561;23;20022;-70
2023/10/06 10:20:59;;;;;;;11.07;4.53;;;17.10;1.00;;;;;;6097271;23;20018;-70
2023/10/06 10:23:27;;;;;;;13.82;3.80;;;18.20;1.00;;;;;;6073378;23;20094;-70
2023/10/06 10:25:54;;;;;;;14.43;3.33;;;17.40;1.00;;;;;;6097341;23;20398;-70
2023/10/06 10:28:27;;;;;;;12.60;3.65;;;18.20;1.00;;;;;;6073532;23;20085;-70
2023/10/06 10:30:59;;;;;;;12.38;3.50;;;17.20;1.00;;;;;;6097100;23;20399;-70
2023/10/06 10:33:30;;;;;;;12.60;3.70;;;17.00;1.00;;;;;;6097330;23;20370;-70
2023/10/06 10:36:14;;;;;;;11.38;3.85;;;17.60;1.00;;;;;;6097791;23;20020;-70
2023/10/06 10:38:44;;;;;;;16.98;4.25;;;17.40;1.00;;;;;;6096745;23;20403;-70
2023/10/06 10:41:11;;;;;;;11.45;4.07;;;17.60;1.00;;;;;;6097432;23;20233;-70
2023/10/06 10:43:45;;;;;;;13.23;3.95;;;18.60;1.00;;;;;;6097095;23;20463;-70
2023/10/06 10:46:13;;;;;;;10.73;3.47;;;18.50;1.00;;;;;;6097376;23;20136;-70
2023/10/06 10:48:47;;;;;;;14.40;3.85;;;17.90;1.00;;;;;;6096888;23;20097;-70
2023/10/06 10:51:14;;;;;;;14.15;3.80;;;17.80;1.00;;;;;;6097097;23;20046;-70
2023/10/06 10:53:45;;;;;;;12.32;3.20;;;17.20;1.00;;;;;;6097322;23;20136;-70
2023/10/06 10:56:25;;;;;;;17.48;4.03;;;17.60;1.00;;;;;;6097320;23;20388;-70
2023/10/06 10:58:50;;;;;;;15.02;4.22;;;18.20;1.00;;;;;;6096717;23;20089;-70
2023/10/06 11:01:38;;;;;;;14.23;3.50;;;18.20;1.00;;;;;;6123244;23;20037;-70
2023/10/06 11:04:09;;;;;;;10.57;3.53;;;18.40;1.00;;;;;;6097054;23;20365;-70
2023/10/06 11:06:36;;;;;;;14.30;3.45;;;18.40;4.50;;;;;;6097343;23;20017;-70
2023/10/06 11:09:12;;;;;;;13.38;3.72;;;18.50;1.00;;;;;;6074587;23;20018;-70
2023/10/06 11:11:38;;;;;;;14.85;4.35;;;17.30;2.80;;;;;;6125658;23;20009;-70
2023/10/06 11:14:04;;;;;;;11.38;4.10;;;18.00;6.80;;;;;;6099301;23;20025;-70
2023/10/06 11:16:31;;;;;;;13.07;3.47;;;18.40;4.50;;;;;;6100269;23;20022;-70
2023/10/06 11:18:57;;;;;;;13.60;3.63;;;18.20;4.70;;;;;;6126251;23;20018;-69
2023/10/06 11:21:30;;;;;;;17.80;4.43;;;17.80;1.00;;;;;;6125610;23;20068;-70
2023/10/06 11:23:58;;;;;;;12.27;4.15;;;17.30;2.40;;;;;;6099095;23;20034;-70
2023/10/06 11:26:32;;;;;;;12.00;3.47;;;18.20;1.40;;;;;;6075169;23;20138;-70
2023/10/06 11:29:00;;;;;;;11.95;4.40;;;18.60;4.70;;;;;;6098381;23;20010;-70
2023/10/06 11:31:29;;;;;;;11.35;3.35;;;17.50;1.00;;;;;;6098903;23;20018;-70
2023/10/06 11:33:56;;;;;;;12.30;4.07;;;18.30;1.00;;;;;;6099174;23;20041;-70
2023/10/06 11:36:22;;;;;;;15.90;4.50;;;17.30;1.00;;;;;;6074957;23;20022;-70
2023/10/06 11:38:48;;;;;;;11.80;4.55;;;17.80;1.00;;;;;;6098564;23;20018;-70
2023/10/06 11:41:24;;;;;;;13.75;3.75;;;18.40;1.00;;;;;;6098831;23;20049;-70
2023/10/06 11:43:58;;;;;;;13.00;3.33;;;17.50;1.00;;;;;;6099001;23;20093;-70
2023/10/06 11:46:23;;;;;;;13.75;4.25;;;17.60;1.00;;;;;;6099131;23;20463;-70
2023/10/06 11:48:52;;;;;;;12.02;3.58;;;18.30;1.00;;;;;;6098370;23;20021;-71
2023/10/06 11:51:18;;;;;;;11.48;3.65;;;17.40;1.00;;;;;;6098583;23;20064;-71
2023/10/06 11:53:44;;;;;;;11.00;3.58;;;17.80;1.00;;;;;;6098377;23;20419;-71
2023/10/06 11:56:16;;;;;;;11.07;3.65;;;18.30;1.00;;;;;;6098788;23;20020;-71
2023/10/06 11:58:44;;;;;;;10.23;3.35;;;18.30;1.00;;;;;;6124365;23;20009;-70
2023/10/06 12:01:32;;;;;;;11.00;3.40;;;18.20;1.00;;;;;;6074440;23;20068;-71
2023/10/06 12:04:04;;;;;;;13.63;3.83;;;18.20;1.00;;;;;;6074663;23;20095;-71
2023/10/06 12:06:40;;;;;;;17.27;3.90;;;18.10;1.00;;;;;;6124524;23;20014;-71
2023/10/06 12:09:13;;;;;;;12.88;3.45;;;18.30;1.00;;;;;;6124055;23;20006;-71
2023/10/06 12:11:38;;;;;;;14.52;3.97;;;18.40;1.00;;;;;;6074890;23;20578;-71
2023/10/06 12:14:04;;;;;;;15.23;3.97;;;18.70;1.00;;;;;;6074489;23;20053;-71
2023/10/06 12:16:30;;;;;;;15.05;3.40;;;18.50;1.00;;;;;;6124842;23;20014;-71
2023/10/06 12:18:56;;;;;;;10.50;3.20;;;18.50;1.00;;;;;;6123983;23;20021;-71
2023/10/06 12:21:22;;;;;;;11.10;3.70;;;18.50;1.00;;;;;;6098593;23;20010;-71
2023/10/06 12:23:47;;;;;;;14.32;3.67;;;19.40;1.00;;;;;;6124695;23;20431;-71
2023/10/06 12:26:13;;;;;;;14.32;3.63;;;18.50;1.00;;;;;;6098315;23;20017;-71
2023/10/06 12:28:42;;;;;;;15.73;3.63;;;17.60;1.00;;;;;;6098089;23;20010;-71
2023/10/06 12:31:08;;;;;;;15.55;4.93;;;18.70;1.00;;;;;;6124509;23;20014;-71
2023/10/06 12:33:34;;;;;;;13.60;4.10;;;18.40;1.00;;;;;;6117414;23;20075;-71
2023/10/06 12:36:03;;;;;;;10.75;4.18;;;17.70;1.00;;;;;;6123040;23;20089;-71
2023/10/06 12:38:30;;;;;;;14.85;4.00;;;18.30;1.00;;;;;;6098104;23;20025;-71
2023/10/06 12:40:55;;;;;;;13.13;4.82;;;18.60;1.00;;;;;;6122887;23;20014;-71
2023/10/06 12:43:21;;;;;;;10.68;3.78;;;18.40;1.00;;;;;;6122465;23;20014;-71
2023/10/06 12:45:47;;;;;;;11.85;4.00;;;18.40;1.00;;;;;;6098408;23;20014;-71
2023/10/06 12:48:13;;;;;;;13.00;4.25;;;17.70;1.00;;;;;;6124284;23;20021;-70
2023/10/06 12:50:42;;;;;;;13.88;3.75;;;18.50;1.00;;;;;;6122136;23;20010;-71
2023/10/06 12:53:09;;;;;;;11.20;3.40;;;18.80;1.00;;;;;;6122403;23;20021;-71
2023/10/06 12:55:36;;;;;;;15.15;4.60;;;18.30;1.00;;;;;;6122690;23;20045;-70
2023/10/06 12:58:03;;;;;;;15.65;4.18;;;18.10;1.00;;;;;;6098490;23;20043;-71
2023/10/06 13:00:30;;;;;;;13.18;4.40;;;18.50;1.00;;;;;;6124022;23;20065;-71
2023/10/06 13:02:56;;;;;;;12.98;4.03;;;18.60;1.00;;;;;;6122597;23;20014;-70
2023/10/06 13:05:22;;;;;;;17.10;4.57;;;18.50;1.00;;;;;;6123854;23;20021;-70
2023/10/06 13:07:51;;;;;;;10.90;3.38;;;18.30;1.00;;;;;;6122459;23;20053;-70